Time;durP1;ratioP1;P1;durP2;ratioP2;P2;SDS_P1;SDS_P2;PMS_P1;PMS_P2;Temp;Humidity;BMP_temperature;BMP_pressure;BME280_temperature;BME280_humidity;BME280_pressure;Samples;Min_cycle;Max_cycle;Signal;HPM_P1;HPM_P2
2021/12/07 00:02:09;;;;;;;0.40;0.30;;;;;;;0.97;99.88;100760.97;5036400;28;20478;-67
2021/12/07 00:04:37;;;;;;;0.40;0.30;;;;;;;0.89;99.50;100755.19;5036768;28;20470;-67
2021/12/07 00:07:04;;;;;;;0.40;0.30;;;;;;;0.92;99.57;100746.72;5036470;28;20454;-67
2021/12/07 00:09:31;;;;;;;0.40;0.30;;;;;;;0.91;99.54;100745.09;5036635;28;20861;-70
2021/12/07 00:12:03;;;;;;;0.40;0.30;;;;;;;0.88;99.89;100740.22;5036382;28;20466;-67
2021/12/07 00:14:37;;;;;;;0.40;0.27;;;;;;;0.91;100.00;100732.56;5036412;28;20555;-69
2021/12/07 00:17:04;;;;;;;0.40;0.27;;;;;;;0.86;100.00;100735.13;5036572;28;20477;-67
2021/12/07 00:19:31;;;;;;;0.60;0.30;;;;;;;0.87;100.00;100733.25;5036490;28;20442;-67
2021/12/07 00:21:58;;;;;;;0.40;0.30;;;;;;;0.82;100.00;100727.81;5036092;28;20473;-67
2021/12/07 00:24:24;;;;;;;0.40;0.30;;;;;;;0.91;100.00;100726.44;5036260;28;20450;-67
2021/12/07 00:26:51;;;;;;;0.40;0.30;;;;;;;0.89;100.00;100723.19;5036067;28;20447;-67
2021/12/07 00:29:18;;;;;;;0.40;0.30;;;;;;;0.93;100.00;100713.66;5036352;28;20443;-67
2021/12/07 00:31:52;;;;;;;0.40;0.30;;;;;;;0.96;100.00;100721.19;5035910;28;20980;-68
2021/12/07 00:34:37;;;;;;;0.40;0.30;;;;;;;0.93;100.00;100706.50;5035907;28;20466;-67
2021/12/07 00:37:04;;;;;;;0.40;0.20;;;;;;;0.96;100.00;100713.19;5036272;28;20419;-67
2021/12/07 00:39:30;;;;;;;1.03;0.93;;;;;;;0.98;100.00;100705.78;5035915;28;20427;-69
2021/12/07 00:41:58;;;;;;;0.50;0.30;;;;;;;1.02;100.00;100704.28;5035471;28;20467;-67
2021/12/07 00:44:26;;;;;;;0.40;0.27;;;;;;;1.05;100.00;100698.47;5035755;28;20458;-68
2021/12/07 00:46:54;;;;;;;0.40;0.30;;;;;;;1.10;100.00;100705.75;5035722;28;20454;-69
2021/12/07 00:49:22;;;;;;;0.40;0.27;;;;;;;1.10;100.00;100700.41;5035929;28;20447;-69
2021/12/07 00:51:49;;;;;;;0.40;0.30;;;;;;;1.14;100.00;100699.72;5035827;28;20463;-69
2021/12/07 00:54:16;;;;;;;0.40;0.30;;;;;;;1.21;100.00;100696.94;5035702;28;20479;-68
2021/12/07 00:56:43;;;;;;;0.40;0.27;;;;;;;1.24;100.00;100686.59;5035445;28;20937;-69
2021/12/07 00:59:10;;;;;;;0.40;0.30;;;;;;;1.22;100.00;100688.69;5035810;28;20446;-67
2021/12/07 01:01:36;;;;;;;0.40;0.30;;;;;;;1.18;100.00;100684.03;5035478;28;20439;-68
2021/12/07 01:04:05;;;;;;;0.40;0.30;;;;;;;1.23;100.00;100684.16;5035678;28;20447;-67
2021/12/07 01:06:44;;;;;;;0.40;0.30;;;;;;;1.26;100.00;100689.81;5035383;28;20493;-69
2021/12/07 01:09:18;;;;;;;0.40;0.30;;;;;;;1.30;99.75;100674.16;5035326;28;20431;-67
2021/12/07 01:25:41;;;;;;;0.40;0.30;;;;;;;1.07;96.94;100674.22;5035138;28;20939;-68
2021/12/07 01:28:18;;;;;;;0.40;0.30;;;;;;;1.09;97.27;100666.78;5034955;28;20443;-67
2021/12/07 01:30:51;;;;;;;0.40;0.30;;;;;;;1.04;96.35;100656.84;5035215;28;20513;-68
2021/12/07 01:33:33;;;;;;;0.40;0.30;;;;;;;1.01;96.22;100658.09;5034897;28;20493;-68
2021/12/07 01:36:34;;;;;;;0.40;0.30;;;;;;;1.01;96.21;100654.63;5035072;28;20467;-67
2021/12/07 01:50:24;;;;;;;0.40;0.30;;;;;;;0.89;95.73;100629.88;5019523;28;20497;-70
2021/12/07 01:53:10;;;;;;;0.40;0.30;;;;;;;0.91;95.64;100617.09;5034845;28;20473;-70
2021/12/07 02:01:08;;;;;;;0.40;0.30;;;;;;;1.01;95.78;100606.63;5034344;28;20430;-68
2021/12/07 02:03:36;;;;;;;0.40;0.30;;;;;;;1.01;95.84;100606.63;5034506;28;20494;-70
2021/12/07 02:06:02;;;;;;;0.40;0.30;;;;;;;0.99;96.04;100603.41;5034328;28;20443;-69
2021/12/07 02:08:30;;;;;;;0.40;0.30;;;;;;;0.95;95.93;100597.72;5034510;28;20439;-70
2021/12/07 02:10:58;;;;;;;0.40;0.30;;;;;;;0.99;96.08;100598.88;5034428;28;20447;-69
2021/12/07 02:16:06;;;;;;;0.40;0.30;;;;;;;1.01;95.89;100594.09;5032694;28;20486;-70
2021/12/07 02:18:33;;;;;;;0.40;0.30;;;;;;;1.05;95.75;100591.78;5033936;28;20967;-70
2021/12/07 02:21:13;;;;;;;0.40;0.30;;;;;;;1.10;95.69;100593.72;5034178;28;20439;-68
2021/12/07 02:23:39;;;;;;;0.40;0.30;;;;;;;1.08;95.36;100585.16;5033877;28;20459;-69
2021/12/07 02:26:06;;;;;;;0.40;0.30;;;;;;;1.02;94.60;100589.59;5034118;28;20439;-69
2021/12/07 02:28:38;;;;;;;0.40;0.30;;;;;;;0.98;94.90;100572.47;5034152;28;20466;-69
2021/12/07 02:31:05;;;;;;;0.40;0.30;;;;;;;0.95;94.79;100580.91;5033656;28;20443;-68
2021/12/07 02:33:32;;;;;;;0.40;0.30;;;;;;;0.88;95.17;100572.25;5033633;28;20823;-70
2021/12/07 02:35:58;;;;;;;0.40;0.30;;;;;;;0.93;95.27;100580.34;5033893;28;20494;-69
2021/12/07 02:38:26;;;;;;;0.40;0.30;;;;;;;0.89;95.07;100576.56;5033621;28;20447;-69
2021/12/07 02:40:53;;;;;;;0.40;0.30;;;;;;;0.87;95.91;100573.28;5033568;28;20439;-70
2021/12/07 02:43:19;;;;;;;0.40;0.30;;;;;;;0.94;96.55;100579.31;5033716;28;20490;-69
2021/12/07 02:45:46;;;;;;;0.60;0.60;;;;;;;0.92;96.88;100584.84;5033778;28;20424;-68
2021/12/07 02:48:12;;;;;;;0.40;0.30;;;;;;;0.91;96.64;100591.25;5033523;28;20427;-69
2021/12/07 02:50:39;;;;;;;0.40;0.30;;;;;;;0.88;96.07;100580.25;5033743;28;20454;-70
2021/12/07 02:53:06;;;;;;;0.40;0.30;;;;;;;0.89;96.46;100584.56;5033112;28;20468;-69
2021/12/07 02:55:34;;;;;;;0.40;0.30;;;;;;;0.84;95.38;100587.09;5033655;28;20502;-70
2021/12/07 02:58:01;;;;;;;0.40;0.30;;;;;;;0.86;95.18;100587.69;5033094;28;20820;-69
2021/12/07 03:00:35;;;;;;;0.40;0.30;;;;;;;0.73;96.06;100584.22;5033514;28;20449;-69
2021/12/07 03:03:06;;;;;;;0.40;0.30;;;;;;;0.79;95.51;100595.00;5033502;28;20553;-69
2021/12/07 03:05:41;;;;;;;0.40;0.30;;;;;;;0.83;96.33;100593.47;5033573;28;20427;-69
2021/12/07 03:08:51;;;;;;;0.40;0.30;;;;;;;0.81;95.39;100592.91;5033523;28;20430;-69
2021/12/07 03:27:51;;;;;;;0.40;0.30;;;;;;;0.82;97.56;100586.53;5033075;28;20830;-71
2021/12/07 03:30:17;;;;;;;0.40;0.20;;;;;;;0.90;97.33;100589.63;5032627;28;20963;-69
2021/12/07 03:32:44;;;;;;;0.40;0.30;;;;;;;0.89;97.60;100588.03;5033024;28;20455;-70
2021/12/07 03:35:10;;;;;;;0.40;0.30;;;;;;;0.83;97.31;100586.28;5035129;28;20532;-69
2021/12/07 03:37:37;;;;;;;0.40;0.30;;;;;;;0.82;96.83;100584.66;5036906;28;20450;-71
2021/12/07 03:40:04;;;;;;;0.40;0.30;;;;;;;0.73;98.37;100570.91;5037285;28;20447;-69
2021/12/07 03:42:31;;;;;;;0.40;0.30;;;;;;;0.72;98.44;100566.63;5038273;28;20466;-71
2021/12/07 03:44:59;;;;;;;0.40;0.30;;;;;;;0.80;98.65;100567.28;5036871;28;20490;-70
2021/12/07 03:47:25;;;;;;;0.40;0.30;;;;;;;0.86;98.63;100577.00;5036646;28;20442;-70
2021/12/07 03:49:52;;;;;;;0.40;0.30;;;;;;;0.87;98.98;100567.97;5036745;28;20443;-71
2021/12/07 03:52:18;;;;;;;0.40;0.30;;;;;;;0.85;99.22;100568.22;5036915;28;20488;-69
2021/12/07 03:54:45;;;;;;;0.57;0.57;;;;;;;0.86;99.40;100566.34;5036859;28;20459;-69
2021/12/07 03:57:11;;;;;;;0.40;0.30;;;;;;;0.86;99.20;100579.69;5036971;28;20439;-69
2021/12/07 03:59:38;;;;;;;0.40;0.30;;;;;;;0.84;99.14;100573.75;5036836;28;20446;-70
2021/12/07 04:02:07;;;;;;;0.40;0.30;;;;;;;0.82;98.64;100578.53;5036745;28;20538;-69
2021/12/07 04:04:33;;;;;;;0.40;0.30;;;;;;;0.86;98.99;100585.00;5036641;28;20455;-71
2021/12/07 04:07:00;;;;;;;0.40;0.30;;;;;;;0.85;98.72;100580.72;5036531;28;20450;-70
2021/12/07 04:09:26;;;;;;;0.40;0.30;;;;;;;0.82;98.88;100581.19;5036185;28;20454;-71
2021/12/07 04:11:54;;;;;;;0.40;0.30;;;;;;;0.72;98.22;100585.28;5036623;28;20458;-71
2021/12/07 04:14:20;;;;;;;0.40;0.30;;;;;;;0.69;98.57;100582.28;5036458;28;20998;-70
2021/12/07 04:16:47;;;;;;;0.40;0.30;;;;;;;0.69;98.39;100580.41;5036618;28;20491;-71
2021/12/07 04:19:14;;;;;;;0.40;0.30;;;;;;;0.67;98.60;100581.72;5036395;28;20434;-71
2021/12/07 04:21:41;;;;;;;0.40;0.30;;;;;;;0.67;98.34;100581.72;5035409;28;20533;-70
2021/12/07 04:24:07;;;;;;;0.40;0.40;;;;;;;0.67;98.86;100581.72;5036012;28;20439;-71
2021/12/07 04:26:34;;;;;;;1.17;1.13;;;;;;;0.67;98.24;100581.72;5036388;28;20439;-70
2021/12/07 04:29:01;;;;;;;2.30;2.20;;;;;;;0.65;98.80;100578.44;5036362;28;20482;-71
2021/12/07 04:31:27;;;;;;;1.50;1.40;;;;;;;0.66;98.79;100586.19;5036025;28;20443;-71
2021/12/07 04:33:54;;;;;;;0.40;0.20;;;;;;;0.64;98.13;100580.31;5036293;28;20445;-71
2021/12/07 04:36:22;;;;;;;0.40;0.30;;;;;;;0.56;99.25;100575.34;5035983;28;20494;-70
2021/12/07 04:38:48;;;;;;;0.40;0.30;;;;;;;0.61;98.97;100578.09;5035812;28;20928;-70
2021/12/07 04:41:15;;;;;;;0.40;0.30;;;;;;;0.59;99.43;100590.06;5035860;28;20470;-70
2021/12/07 04:43:42;;;;;;;0.60;0.60;;;;;;;0.61;98.84;100586.09;5035824;28;20482;-71
2021/12/07 04:46:14;;;;;;;0.40;0.30;;;;;;;0.66;99.24;100596.88;5035388;28;20423;-71
2021/12/07 04:59:39;;;;;;;0.40;0.30;;;;;;;0.72;97.94;100593.28;5035354;28;20431;-72
2021/12/07 05:02:06;;;;;;;0.40;0.30;;;;;;;0.74;98.55;100588.50;5035978;28;20467;-72
2021/12/07 05:04:35;;;;;;;0.40;0.30;;;;;;;0.77;99.08;100578.44;5035675;28;20439;-68
2021/12/07 05:07:09;;;;;;;0.40;0.30;;;;;;;0.74;99.43;100577.03;5035628;28;20447;-71
2021/12/07 05:12:26;;;;;;;0.40;0.20;;;;;;;0.73;99.97;100578.91;5034019;28;20475;-70
2021/12/07 05:15:00;;;;;;;3.60;3.20;;;;;;;0.80;100.00;100572.59;5035312;28;20470;-70
2021/12/07 05:17:45;;;;;;;0.40;0.30;;;;;;;0.84;100.00;100573.75;5035533;28;20446;-70
2021/12/07 05:39:30;;;;;;;0.40;0.30;;;;;;;0.79;97.45;100589.66;5034774;28;20439;-70
2021/12/07 05:41:58;;;;;;;0.40;0.30;;;;;;;0.79;97.67;100595.78;5034668;28;20991;-69
2021/12/07 05:44:25;;;;;;;0.40;0.30;;;;;;;0.84;97.72;100595.09;5034437;28;20455;-70
2021/12/07 05:46:51;;;;;;;0.40;0.30;;;;;;;0.89;97.45;100592.53;5034616;28;20450;-70
2021/12/07 05:49:18;;;;;;;0.40;0.40;;;;;;;0.92;97.78;100602.72;5034424;28;20455;-69
2021/12/07 05:51:44;;;;;;;0.40;0.30;;;;;;;0.88;98.98;100605.03;5034223;28;21046;-70
2021/12/07 05:54:11;;;;;;;0.40;0.30;;;;;;;0.97;98.60;100608.16;5034485;28;20451;-70
2021/12/07 05:56:38;;;;;;;0.50;0.40;;;;;;;0.95;98.65;100610.25;5034553;28;20498;-70
2021/12/07 05:59:05;;;;;;;0.40;0.30;;;;;;;0.93;97.51;100612.34;5034029;28;20435;-70
2021/12/07 06:01:31;;;;;;;0.40;0.40;;;;;;;0.91;97.68;100603.78;5033918;28;20505;-74
2021/12/07 06:03:58;;;;;;;0.40;0.30;;;;;;;0.88;96.87;100623.69;5033763;28;20450;-73
2021/12/07 06:06:24;;;;;;;0.40;0.30;;;;;;;0.88;97.14;100613.03;5034468;28;20439;-73
2021/12/07 06:08:51;;;;;;;0.40;0.30;;;;;;;0.85;97.69;100610.06;5034343;28;20442;-75
2021/12/07 06:11:18;;;;;;;0.40;0.20;;;;;;;0.88;97.45;100612.22;5034475;28;20447;-73
2021/12/07 06:13:46;;;;;;;15.97;14.77;;;;;;;0.80;97.26;100621.44;5034433;28;20448;-75
2021/12/07 06:16:15;;;;;;;0.40;0.30;;;;;;;0.83;96.97;100618.28;5014677;28;20488;-74
2021/12/07 06:18:42;;;;;;;0.40;0.30;;;;;;;0.84;97.01;100619.06;5014326;28;21028;-74
2021/12/07 06:21:08;;;;;;;31.20;29.10;;;;;;;0.84;96.88;100613.75;5014536;28;20448;-74
2021/12/07 06:23:35;;;;;;;0.40;0.30;;;;;;;0.81;96.70;100628.38;5014428;28;20476;-73
2021/12/07 06:26:01;;;;;;;0.40;0.30;;;;;;;0.79;96.18;100624.31;5014404;28;20444;-73
2021/12/07 06:28:28;;;;;;;0.40;0.30;;;;;;;0.75;96.24;100618.63;5014133;28;20443;-75
2021/12/07 06:30:56;;;;;;;0.40;0.20;;;;;;;0.72;96.33;100619.13;5032634;28;20451;-74
2021/12/07 06:33:25;;;;;;;0.40;0.30;;;;;;;0.71;96.55;100618.31;5033700;28;20489;-73
2021/12/07 06:35:57;;;;;;;0.40;0.30;;;;;;;0.71;96.89;100620.19;5033959;28;20889;-74
2021/12/07 06:38:23;;;;;;;5.93;5.60;;;;;;;0.71;96.71;100622.84;5034070;28;20522;-74
2021/12/07 06:40:50;;;;;;;0.40;0.30;;;;;;;0.72;96.65;100619.94;5033828;28;20451;-74
2021/12/07 06:43:16;;;;;;;0.40;0.30;;;;;;;0.71;96.54;100618.31;5033809;28;20459;-74
2021/12/07 06:45:43;;;;;;;0.50;0.47;;;;;;;0.70;97.06;100622.00;5033859;28;20446;-74
2021/12/07 06:48:11;;;;;;;0.40;0.30;;;;;;;0.78;96.84;100625.38;5033778;28;20857;-73
2021/12/07 06:50:37;;;;;;;0.40;0.30;;;;;;;0.85;97.06;100620.72;5033836;28;20863;-73
2021/12/07 06:53:04;;;;;;;0.40;0.30;;;;;;;0.81;96.33;100622.25;5033701;28;20464;-72
2021/12/07 06:55:31;;;;;;;0.40;0.30;;;;;;;0.82;96.50;100622.00;5033218;28;20447;-71
2021/12/07 06:57:58;;;;;;;0.97;0.93;;;;;;;0.82;96.39;100623.84;5032523;28;20449;-72
2021/12/07 07:00:24;;;;;;;0.63;0.63;;;;;;;0.82;96.87;100626.50;5032688;28;20450;-69
2021/12/07 07:02:51;;;;;;;0.83;0.83;;;;;;;0.81;96.84;100636.38;5033487;28;20466;-70
2021/12/07 07:05:19;;;;;;;0.40;0.27;;;;;;;0.81;97.49;100641.72;5032849;28;20525;-70
2021/12/07 07:07:46;;;;;;;0.40;0.30;;;;;;;0.88;97.21;100642.38;5033257;28;20493;-71
2021/12/07 07:10:14;;;;;;;0.40;0.30;;;;;;;1.01;97.37;100649.28;5032534;28;20821;-70
2021/12/07 07:12:41;;;;;;;0.50;0.40;;;;;;;1.06;96.78;100654.72;5033331;28;20521;-70
2021/12/07 07:15:09;;;;;;;0.40;0.30;;;;;;;1.13;96.44;100647.41;5033381;28;20829;-70
2021/12/07 07:17:36;;;;;;;0.77;0.77;;;;;;;1.20;96.46;100648.09;5033330;28;20494;-69
2021/12/07 07:20:05;;;;;;;0.40;0.30;;;;;;;1.10;95.89;100647.88;5033350;28;20450;-70
2021/12/07 07:22:33;;;;;;;2.77;2.67;;;;;;;1.16;96.01;100656.81;5033211;28;20462;-69
2021/12/07 07:25:00;;;;;;;0.40;0.30;;;;;;;1.12;95.86;100656.47;5033234;28;20447;-68
2021/12/07 07:27:26;;;;;;;0.40;0.30;;;;;;;1.14;96.01;100657.03;5033255;28;20451;-70
2021/12/07 07:29:53;;;;;;;0.40;0.30;;;;;;;1.17;95.30;100659.22;5032949;28;20964;-69
2021/12/07 07:32:19;;;;;;;0.40;0.30;;;;;;;1.12;95.03;100661.00;5033128;28;20462;-70
2021/12/07 07:34:46;;;;;;;0.40;0.30;;;;;;;0.99;94.92;100676.22;5033132;28;20447;-69
2021/12/07 07:37:14;;;;;;;0.40;0.30;;;;;;;0.96;94.92;100667.88;5033103;28;20528;-70
2021/12/07 07:39:41;;;;;;;0.40;0.30;;;;;;;0.94;94.53;100677.97;5033236;28;20451;-70
2021/12/07 07:42:09;;;;;;;0.40;0.30;;;;;;;0.94;94.39;100672.63;5032765;28;20470;-70
2021/12/07 07:44:35;;;;;;;0.50;0.30;;;;;;;0.92;93.91;100672.03;5032839;28;20952;-69
2021/12/07 07:47:02;;;;;;;2.87;2.67;;;;;;;0.84;94.08;100673.25;5033238;28;20439;-69
2021/12/07 07:49:28;;;;;;;0.40;0.30;;;;;;;0.83;94.22;100676.13;5033107;28;20439;-69
2021/12/07 07:51:55;;;;;;;0.40;0.30;;;;;;;0.79;94.50;100673.09;5032972;28;20459;-69
2021/12/07 07:54:21;;;;;;;0.40;0.20;;;;;;;0.87;95.25;100686.06;5033007;28;20447;-69
2021/12/07 07:56:49;;;;;;;0.40;0.30;;;;;;;0.91;94.55;100678.44;5032988;28;20489;-70
2021/12/07 07:59:15;;;;;;;0.40;0.30;;;;;;;0.91;94.17;100686.44;5033059;28;20443;-70
2021/12/07 08:01:42;;;;;;;0.40;0.20;;;;;;;0.94;94.76;100691.31;5032971;28;20466;-70
2021/12/07 08:04:09;;;;;;;0.40;0.30;;;;;;;0.97;95.01;100682.81;5032713;28;20463;-69
2021/12/07 08:06:35;;;;;;;0.40;0.30;;;;;;;1.03;95.52;100687.22;5032930;28;20439;-69
2021/12/07 08:09:03;;;;;;;0.40;0.30;;;;;;;1.13;94.83;100690.09;5032752;28;20534;-69
2021/12/07 08:11:30;;;;;;;7.60;7.20;;;;;;;1.14;94.55;100693.56;5032530;28;20948;-69
2021/12/07 08:13:58;;;;;;;0.40;0.30;;;;;;;1.19;94.28;100699.00;5032839;28;20443;-68
2021/12/07 08:16:24;;;;;;;0.40;0.30;;;;;;;1.22;93.97;100694.00;5032525;28;20941;-69
2021/12/07 08:18:53;;;;;;;3.33;3.13;;;;;;;1.18;93.40;100698.19;5032797;28;20438;-69
2021/12/07 08:21:20;;;;;;;0.40;0.30;;;;;;;1.13;94.11;100698.09;5033244;28;20446;-70
2021/12/07 08:23:47;;;;;;;0.40;0.30;;;;;;;1.13;93.80;100695.44;5036047;28;20435;-69
2021/12/07 08:26:16;;;;;;;0.40;0.30;;;;;;;1.20;93.93;100692.66;5035289;28;20435;-70
2021/12/07 08:28:43;;;;;;;1.07;1.07;;;;;;;1.29;93.63;100693.09;5035415;28;20451;-69
2021/12/07 08:31:11;;;;;;;0.40;0.30;;;;;;;1.32;94.07;100697.94;5036104;28;20449;-69
2021/12/07 08:33:37;;;;;;;0.40;0.30;;;;;;;1.29;94.12;100690.41;5036209;28;20505;-70
2021/12/07 08:36:04;;;;;;;0.40;0.30;;;;;;;1.34;94.23;100688.66;5036166;28;20454;-67
2021/12/07 08:38:32;;;;;;;0.50;0.40;;;;;;;1.41;94.36;100691.97;5035503;28;20454;-68
2021/12/07 08:40:59;;;;;;;0.40;0.30;;;;;;;1.45;94.02;100703.00;5035784;28;20944;-68
2021/12/07 08:43:27;;;;;;;0.40;0.30;;;;;;;1.51;93.94;100702.06;5035111;28;21026;-68
2021/12/07 08:45:55;;;;;;;0.40;0.30;;;;;;;1.55;94.23;100697.88;5036102;28;20435;-68
2021/12/07 08:48:24;;;;;;;0.40;0.30;;;;;;;1.57;93.74;100706.44;5035148;28;20948;-70
2021/12/07 08:50:51;;;;;;;0.40;0.20;;;;;;;1.56;93.63;100696.00;5035876;28;20521;-69
2021/12/07 08:53:19;;;;;;;0.40;0.30;;;;;;;1.63;93.29;100694.78;5035623;28;20845;-68
2021/12/07 09:01:20;;;;;;;0.40;0.30;;;;;;;1.56;92.88;100699.47;5035939;28;20450;-68
2021/12/07 09:03:49;;;;;;;0.40;0.30;;;;;;;1.64;93.01;100701.78;5035743;28;21020;-69
2021/12/07 09:06:16;;;;;;;0.40;0.30;;;;;;;1.67;92.88;100698.59;5034828;28;20465;-69
2021/12/07 09:08:44;;;;;;;0.40;0.30;;;;;;;1.66;92.12;100701.53;5035658;28;20447;-72
2021/12/07 09:11:12;;;;;;;0.40;0.30;;;;;;;1.64;92.37;100714.28;5035371;28;20937;-69
2021/12/07 09:13:40;;;;;;;0.40;0.30;;;;;;;1.71;92.08;100714.97;5035464;28;20551;-70
2021/12/07 09:16:09;;;;;;;0.40;0.30;;;;;;;1.82;91.97;100718.63;5035069;28;20471;-70
2021/12/07 09:18:36;;;;;;;0.40;0.30;;;;;;;1.80;91.75;100715.38;5035171;28;20443;-70
2021/12/07 09:21:06;;;;;;;0.40;0.30;;;;;;;1.77;91.75;100717.50;5035238;28;20497;-70
2021/12/07 09:23:33;;;;;;;2.30;2.20;;;;;;;1.81;91.89;100717.00;5035039;28;21002;-70
2021/12/07 09:25:59;;;;;;;0.40;0.30;;;;;;;1.76;91.56;100723.88;5034776;28;20449;-70
2021/12/07 09:28:26;;;;;;;0.40;0.23;;;;;;;1.83;91.93;100709.56;5035238;28;20451;-70
2021/12/07 09:30:53;;;;;;;0.40;0.30;;;;;;;1.85;91.57;100715.47;5035015;28;20447;-71
2021/12/07 09:33:21;;;;;;;0.40;0.30;;;;;;;1.83;91.73;100713.06;5034256;28;20472;-70
2021/12/07 09:35:47;;;;;;;0.40;0.30;;;;;;;1.81;91.77;100715.13;5035145;28;20456;-71
2021/12/07 09:38:15;;;;;;;0.40;0.30;;;;;;;1.85;91.34;100704.78;5035098;28;20486;-71
2021/12/07 09:40:42;;;;;;;0.40;0.30;;;;;;;1.92;90.95;100713.47;5035018;28;20970;-70
2021/12/07 09:43:11;;;;;;;0.40;0.30;;;;;;;1.83;90.86;100710.38;5073075;22;20525;-69
2021/12/07 09:45:38;;;;;;;0.40;0.30;;;;;;;1.86;91.36;100720.59;5073420;28;20468;-69
2021/12/07 09:48:06;;;;;;;0.40;0.30;;;;;;;1.85;91.22;100718.13;5074525;28;20931;-69
2021/12/07 09:50:35;;;;;;;0.40;0.30;;;;;;;1.84;91.05;100713.84;5074382;28;20953;-68
2021/12/07 09:53:01;;;;;;;0.40;0.30;;;;;;;1.95;91.15;100729.03;5085555;28;20461;-68
2021/12/07 09:55:29;;;;;;;0.40;0.30;;;;;;;1.98;90.59;100720.50;5094907;28;20521;-69
2021/12/07 09:57:57;;;;;;;0.40;0.30;;;;;;;2.01;90.10;100718.19;5094759;28;20538;-68
2021/12/07 10:00:25;;;;;;;0.40;0.30;;;;;;;1.96;90.12;100722.63;5094488;28;20832;-68
2021/12/07 10:02:53;;;;;;;0.40;0.30;;;;;;;1.97;89.74;100717.03;5094357;28;20999;-68
2021/12/07 10:05:20;;;;;;;0.40;0.30;;;;;;;1.99;89.92;100724.78;5094708;28;20444;-68
2021/12/07 10:07:48;;;;;;;0.50;0.30;;;;;;;1.99;90.27;100728.31;5094333;28;20440;-68
2021/12/07 10:10:21;;;;;;;0.40;0.30;;;;;;;2.00;89.82;100734.47;5094579;28;20436;-68
2021/12/07 10:12:49;;;;;;;0.40;0.30;;;;;;;1.96;90.13;100719.97;5094555;28;20499;-68
2021/12/07 10:15:16;;;;;;;0.40;0.20;;;;;;;1.89;90.29;100716.63;5094532;28;20445;-68
2021/12/07 10:17:42;;;;;;;0.40;0.30;;;;;;;1.91;90.51;100720.69;5094404;28;20480;-69
2021/12/07 10:20:32;;;;;;;0.40;0.30;;;;;;;1.99;89.71;100716.78;5094551;28;20452;-68
2021/12/07 10:23:04;;;;;;;0.40;0.20;;;;;;;1.95;90.50;100723.69;5094038;28;20555;-68
2021/12/07 10:25:30;;;;;;;0.40;0.30;;;;;;;1.97;90.85;100721.56;5094488;28;20463;-69
2021/12/07 10:27:58;;;;;;;0.60;0.47;;;;;;;1.92;91.11;100719.63;5094316;28;20440;-68
2021/12/07 10:30:25;;;;;;;0.40;0.30;;;;;;;1.87;91.11;100719.53;5093918;28;20865;-67
2021/12/07 10:33:03;;;;;;;0.40;0.30;;;;;;;1.85;91.27;100715.47;5094121;28;20469;-68
2021/12/07 10:35:32;;;;;;;0.90;0.90;;;;;;;1.91;91.21;100710.00;5094166;28;20424;-68
2021/12/07 10:38:13;;;;;;;0.50;0.30;;;;;;;2.04;91.17;100708.88;5093766;28;20487;-68
2021/12/07 10:41:05;;;;;;;0.40;0.30;;;;;;;2.07;90.34;100711.06;5094032;28;20444;-68
2021/12/07 10:43:52;;;;;;;0.40;0.30;;;;;;;1.93;90.13;100710.56;5069133;28;20826;-68
2021/12/07 10:46:40;;;;;;;0.40;0.40;;;;;;;1.94;89.62;100698.00;5094022;28;20443;-69
2021/12/07 10:49:33;;;;;;;0.40;0.20;;;;;;;1.95;90.34;100689.78;5093923;28;20424;-69
2021/12/07 10:52:21;;;;;;;0.40;0.30;;;;;;;1.91;90.19;100690.50;5093901;28;20482;-68
2021/12/07 10:55:02;;;;;;;0.40;0.30;;;;;;;1.77;90.55;100690.78;5093853;28;20432;-69
2021/12/07 10:57:32;;;;;;;0.40;0.30;;;;;;;1.86;90.83;100680.53;5093480;28;20994;-69
2021/12/07 11:00:12;;;;;;;0.40;0.30;;;;;;;1.94;90.86;100687.31;5093526;28;20516;-69
2021/12/07 11:02:41;;;;;;;0.50;0.40;;;;;;;2.06;90.37;100688.06;5093717;28;20460;-69
2021/12/07 11:05:10;;;;;;;0.40;0.30;;;;;;;2.03;90.02;100684.00;5093592;28;20440;-69
2021/12/07 11:07:38;;;;;;;0.93;0.93;;;;;;;2.08;90.06;100677.97;5093615;28;20440;-69
2021/12/07 11:10:10;;;;;;;0.40;0.30;;;;;;;2.12;90.12;100681.75;5093674;28;20451;-70
2021/12/07 11:12:46;;;;;;;0.40;0.40;;;;;;;2.14;89.71;100685.00;5093523;28;20502;-68
2021/12/07 11:15:22;;;;;;;1.37;1.27;;;;;;;2.21;89.71;100691.00;5093276;28;20894;-68
2021/12/07 11:17:49;;;;;;;0.40;0.30;;;;;;;2.20;89.38;100677.88;5093224;28;20964;-68
2021/12/07 11:20:16;;;;;;;0.73;0.73;;;;;;;2.22;89.39;100684.59;5093543;28;20797;-67
2021/12/07 11:22:48;;;;;;;0.40;0.30;;;;;;;2.21;89.69;100684.81;5093415;28;20483;-67
2021/12/07 11:25:53;;;;;;;0.40;0.30;;;;;;;2.19;89.35;100692.28;5093538;28;20429;-68
2021/12/07 11:31:18;;;;;;;0.40;0.30;;;;;;;2.06;88.75;100674.72;5093237;28;20400;-68
2021/12/07 11:33:46;;;;;;;9.40;4.83;;;;;;;1.96;89.48;100682.56;5093234;28;20468;-68
2021/12/07 11:36:19;;;;;;;8.03;7.53;;;;;;;1.88;90.61;100685.63;5093382;28;20795;-68
2021/12/07 11:38:46;;;;;;;0.40;0.30;;;;;;;1.94;90.56;100690.00;5093247;28;20483;-68
2021/12/07 11:41:22;;;;;;;0.40;0.30;;;;;;;1.92;91.25;100686.75;5093330;28;20448;-68
2021/12/07 11:43:55;;;;;;;0.40;0.30;;;;;;;1.97;90.02;100689.53;5092852;28;21008;-68
2021/12/07 11:46:24;;;;;;;0.40;0.30;;;;;;;2.02;90.16;100689.59;5093269;28;20430;-68
2021/12/07 11:49:05;;;;;;;0.40;0.30;;;;;;;2.01;90.51;100685.31;5093168;28;20440;-67
2021/12/07 11:51:32;;;;;;;0.40;0.30;;;;;;;2.02;90.73;100676.25;5092970;28;20951;-68
2021/12/07 11:53:58;;;;;;;0.40;0.30;;;;;;;2.07;90.29;100684.34;5092995;28;20453;-71
2021/12/07 11:56:25;;;;;;;0.40;0.30;;;;;;;2.12;89.81;100676.41;5095489;28;20441;-68
2021/12/07 11:58:51;;;;;;;2.23;2.07;;;;;;;2.21;90.69;100674.97;5097061;28;20480;-67
2021/12/07 12:01:19;;;;;;;0.40;0.30;;;;;;;2.31;90.21;100678.84;5097133;28;20440;-68
2021/12/07 12:03:46;;;;;;;0.40;0.30;;;;;;;2.35;89.73;100674.66;5097005;28;20559;-69
2021/12/07 12:06:14;;;;;;;0.40;0.20;;;;;;;2.45;89.35;100653.41;5096973;28;20436;-69
2021/12/07 12:08:41;;;;;;;0.50;0.43;;;;;;;2.48;89.75;100652.94;5096656;28;20925;-69
2021/12/07 12:11:15;;;;;;;0.40;0.30;;;;;;;2.47;90.12;100640.59;5096878;28;20451;-69
2021/12/07 12:13:50;;;;;;;0.40;0.30;;;;;;;2.59;89.50;100646.66;5096773;28;20455;-70
2021/12/07 12:16:22;;;;;;;0.40;0.30;;;;;;;2.66;89.02;100649.16;5096887;28;20432;-70
2021/12/07 12:19:10;;;;;;;0.40;0.30;;;;;;;2.66;89.16;100649.16;5096704;28;20471;-70
2021/12/07 12:21:41;;;;;;;1.27;1.27;;;;;;;2.68;88.56;100658.53;5096745;28;20428;-71
2021/12/07 12:24:14;;;;;;;0.40;0.30;;;;;;;2.63;88.57;100660.34;5096600;28;20467;-70
2021/12/07 12:26:44;;;;;;;2.60;2.50;;;;;;;2.61;88.69;100663.28;5096676;28;20874;-69
2021/12/07 12:29:20;;;;;;;0.40;0.27;;;;;;;2.68;88.76;100669.22;5096685;28;20433;-69
2021/12/07 12:31:52;;;;;;;0.50;0.40;;;;;;;2.78;88.74;100672.03;5096455;28;20504;-69
2021/12/07 12:34:22;;;;;;;0.40;0.30;;;;;;;2.80;87.86;100662.97;5096502;28;20448;-69
2021/12/07 12:37:04;;;;;;;19.80;18.40;;;;;;;2.87;87.34;100658.25;5096431;28;20517;-69
2021/12/07 12:39:42;;;;;;;0.77;0.77;;;;;;;3.05;86.43;100652.56;5096361;28;20469;-69
2021/12/07 12:42:09;;;;;;;0.40;0.30;;;;;;;3.02;86.61;100658.44;5096199;28;20483;-69
2021/12/07 12:44:37;;;;;;;1.00;1.00;;;;;;;3.15;87.67;100658.06;5096338;28;20428;-69
2021/12/07 12:47:05;;;;;;;0.40;0.30;;;;;;;3.20;86.47;100668.03;5096250;28;20435;-70
2021/12/07 12:49:42;;;;;;;0.40;0.30;;;;;;;3.28;85.83;100664.91;5096219;28;20436;-70
2021/12/07 12:52:09;;;;;;;0.40;0.30;;;;;;;3.51;84.55;100658.47;5096121;28;20464;-70
2021/12/07 12:54:42;;;;;;;0.40;0.30;;;;;;;3.67;83.19;100662.09;5096112;28;20452;-69
2021/12/07 12:57:14;;;;;;;0.50;0.40;;;;;;;3.78;82.76;100674.53;5095763;28;20441;-69
2021/12/07 12:59:43;;;;;;;0.40;0.30;;;;;;;3.91;82.62;100667.94;5095958;28;20421;-69
2021/12/07 13:02:12;;;;;;;0.80;0.80;;;;;;;3.94;81.42;100660.22;5095843;28;20456;-69
2021/12/07 13:04:41;;;;;;;0.60;0.60;;;;;;;3.97;80.53;100664.25;5095861;28;20444;-68
2021/12/07 13:07:24;;;;;;;0.40;0.20;;;;;;;3.86;81.77;100662.56;5094462;28;20447;-68
2021/12/07 13:09:55;;;;;;;1.33;1.33;;;;;;;3.57;82.81;100657.44;5095824;28;20453;-68
2021/12/07 13:12:23;;;;;;;0.50;0.40;;;;;;;3.45;82.29;100664.81;5095760;28;20460;-69
2021/12/07 13:15:09;;;;;;;1.83;1.73;;;;;;;3.36;83.21;100661.78;5095706;28;20443;-69